createdAt,value
2023-08-04T00:01:03.429Z,30.20
2023-08-04T00:03:32.426Z,23.80
2023-08-04T00:06:00.737Z,25.80
2023-08-04T00:08:28.978Z,24.20
2023-08-04T00:10:57.156Z,34.10
2023-08-04T00:13:25.424Z,27.90
2023-08-04T00:15:53.972Z,42.70
2023-08-04T00:18:22.249Z,31.70
2023-08-04T00:20:50.532Z,28.70
2023-08-04T00:23:19.095Z,31.50
2023-08-04T00:25:47.309Z,36.70
2023-08-04T00:28:15.463Z,30.50
2023-08-04T00:30:43.835Z,25.20
2023-08-04T00:33:12.091Z,22.80
2023-08-04T00:35:40.482Z,27.70
2023-08-04T00:38:08.617Z,32.20
2023-08-04T00:40:37.802Z,27.20
2023-08-04T00:43:06.175Z,22.80
2023-08-04T00:45:35.614Z,28.10
2023-08-04T00:48:04.407Z,29.90
2023-08-04T00:50:34.091Z,35.10
2023-08-04T00:53:03.409Z,39.40
2023-08-04T00:55:33.459Z,37.30
2023-08-04T00:58:02.067Z,27.70
2023-08-04T01:00:30.354Z,23.00
2023-08-04T01:02:58.667Z,29.70
2023-08-04T01:05:38.322Z,28.00
2023-08-04T01:08:18.399Z,23.80
2023-08-04T01:11:15.087Z,24.00
2023-08-04T01:13:44.672Z,31.80
2023-08-04T01:16:32.953Z,32.80
2023-08-04T01:28:31.889Z,19.50
2023-08-04T01:31:02.053Z,26.30
2023-08-04T01:33:30.979Z,24.30
2023-08-04T01:35:59.460Z,24.70
2023-08-04T01:53:06.337Z,18.60
2023-08-04T01:55:34.476Z,21.50
2023-08-04T01:58:02.687Z,19.90
2023-08-04T02:00:30.861Z,18.60
2023-08-04T02:02:59.023Z,17.80
2023-08-04T02:05:27.309Z,17.00
2023-08-04T02:07:55.544Z,12.30
2023-08-04T02:10:30.116Z,13.90
2023-08-04T02:12:58.294Z,14.60
2023-08-04T02:15:26.526Z,13.80
2023-08-04T02:17:54.732Z,12.90
2023-08-04T02:20:22.998Z,13.60
2023-08-04T02:22:51.738Z,15.20
2023-08-04T02:25:22.107Z,15.00
2023-08-04T02:27:50.606Z,19.20
2023-08-04T02:30:18.836Z,15.30
2023-08-04T02:33:47.952Z,22.60
2023-08-04T02:37:51.222Z,16.40
2023-08-04T02:40:20.732Z,14.10
2023-08-04T02:42:49.159Z,20.70
2023-08-04T02:45:17.396Z,16.40
2023-08-04T02:47:45.578Z,15.60
2023-08-04T02:50:13.883Z,18.80
2023-08-04T02:52:42.181Z,16.30
2023-08-04T02:55:11.532Z,16.70
2023-08-04T02:57:40.064Z,15.40
2023-08-04T03:00:08.543Z,17.50
2023-08-04T03:02:36.920Z,16.60
2023-08-04T03:05:05.561Z,21.00
2023-08-04T03:07:34.118Z,18.70
2023-08-04T03:10:02.319Z,17.90
2023-08-04T03:12:30.578Z,20.30
2023-08-04T03:15:00.451Z,24.70
2023-08-04T03:17:30.298Z,23.70
2023-08-04T03:19:59.565Z,31.50
2023-08-04T03:22:27.793Z,31.50
2023-08-04T03:24:56.072Z,26.40
2023-08-04T03:27:25.054Z,26.50
2023-08-04T03:29:53.306Z,26.40
2023-08-04T03:32:22.378Z,28.90
2023-08-04T03:34:50.725Z,34.20
2023-08-04T03:37:19.194Z,30.10
2023-08-04T03:39:47.455Z,33.90
2023-08-04T03:42:15.956Z,29.60
2023-08-04T03:44:45.010Z,29.60
2023-08-04T03:47:13.396Z,28.60
2023-08-04T03:49:41.955Z,29.00
2023-08-04T03:52:10.270Z,21.70
2023-08-04T03:54:38.525Z,21.90
2023-08-04T03:57:07.654Z,18.10
2023-08-04T03:59:38.551Z,18.50
2023-08-04T04:02:07.299Z,23.00
2023-08-04T04:04:35.691Z,21.70
2023-08-04T04:07:04.003Z,19.70
2023-08-04T04:09:32.217Z,14.90
2023-08-04T04:12:00.568Z,13.70
2023-08-04T04:14:28.737Z,15.80
2023-08-04T04:16:57.351Z,17.00
2023-08-04T04:19:25.489Z,21.80
2023-08-04T04:21:53.677Z,14.60
2023-08-04T04:24:21.821Z,12.30
2023-08-04T04:26:50.101Z,11.90
2023-08-04T04:29:18.974Z,13.50
2023-08-04T04:31:56.404Z,9.00
2023-08-04T04:34:24.632Z,10.30
2023-08-04T04:36:52.955Z,11.90
2023-08-04T04:39:21.158Z,9.90
2023-08-04T04:41:49.511Z,11.50
2023-08-04T04:44:18.065Z,10.70
2023-08-04T04:46:47.019Z,16.30
2023-08-04T04:49:17.667Z,15.90
2023-08-04T04:51:47.302Z,12.90
2023-08-04T04:54:15.720Z,12.10
2023-08-04T04:56:43.954Z,14.30
2023-08-04T04:59:12.185Z,11.70
2023-08-04T05:01:40.522Z,12.70
2023-08-04T05:04:10.348Z,16.80
2023-08-04T05:06:38.751Z,17.90
2023-08-04T05:09:08.259Z,21.60
2023-08-04T05:11:36.484Z,23.20
2023-08-04T05:14:05.834Z,17.40
2023-08-04T05:16:34.189Z,13.70
2023-08-04T05:19:03.463Z,17.20
2023-08-04T05:21:33.951Z,24.20
2023-08-04T05:24:02.477Z,17.10
2023-08-04T05:26:32.711Z,15.30
2023-08-04T05:29:00.982Z,13.80
2023-08-04T05:31:29.313Z,12.60
2023-08-04T05:33:57.534Z,14.20
2023-08-04T05:36:25.862Z,13.40
2023-08-04T05:38:54.441Z,15.80
2023-08-04T05:41:22.756Z,15.80
2023-08-04T05:43:52.719Z,12.80
2023-08-04T05:46:46.223Z,19.60
2023-08-04T05:49:14.681Z,23.30
2023-08-04T05:51:43.115Z,19.90
2023-08-04T05:54:11.418Z,13.30
2023-08-04T05:56:39.661Z,19.40
2023-08-04T05:59:07.819Z,15.60
2023-08-04T06:01:36.181Z,16.00
2023-08-04T06:04:28.317Z,15.20
2023-08-04T06:07:00.598Z,13.30
2023-08-04T06:09:32.670Z,15.40
2023-08-04T06:12:00.950Z,16.20
2023-08-04T06:14:29.454Z,20.00
2023-08-04T06:32:31.340Z,17.40
2023-08-04T06:35:21.803Z,14.10
2023-08-04T06:38:15.280Z,18.30
2023-08-04T06:41:10.702Z,16.40
2023-08-04T06:57:54.305Z,14.90
2023-08-04T07:00:24.284Z,15.30
2023-08-04T07:03:24.931Z,14.00
2023-08-04T07:16:11.092Z,15.60
2023-08-04T07:22:05.019Z,18.10
2023-08-04T07:24:38.359Z,15.20
2023-08-04T07:28:21.645Z,15.90
2023-08-04T07:31:16.278Z,18.80
2023-08-04T07:33:44.756Z,30.90
2023-08-04T07:36:19.055Z,18.10
2023-08-04T07:38:47.807Z,13.50
2023-08-04T07:41:23.259Z,13.10
2023-08-04T07:43:51.883Z,11.80
2023-08-04T07:49:36.684Z,8.60
2023-08-04T07:52:05.785Z,23.90
2023-08-04T07:54:35.393Z,12.20
2023-08-04T07:57:04.461Z,16.40
2023-08-04T07:59:32.771Z,10.30
2023-08-04T08:02:01.098Z,15.90
2023-08-04T08:04:59.084Z,16.00
2023-08-04T08:07:39.636Z,36.60
2023-08-04T08:10:15.269Z,14.20
2023-08-04T08:12:46.790Z,17.90
2023-08-04T08:15:15.161Z,14.50
2023-08-04T08:17:43.378Z,23.40
2023-08-04T08:20:11.957Z,14.10
2023-08-04T08:22:42.368Z,10.20
2023-08-04T08:25:14.049Z,14.60
2023-08-04T08:27:42.422Z,12.30
2023-08-04T08:31:01.932Z,14.10
2023-08-04T08:33:30.384Z,14.80
2023-08-04T08:36:02.913Z,16.90
2023-08-04T08:38:32.646Z,13.80
2023-08-04T08:41:03.146Z,9.00
2023-08-04T08:46:17.137Z,19.00
2023-08-04T08:48:49.469Z,17.20
2023-08-04T08:51:30.730Z,17.40
2023-08-04T08:54:00.067Z,9.30
2023-08-04T08:56:28.531Z,11.30
2023-08-04T08:58:56.815Z,18.40
2023-08-04T09:01:25.286Z,10.80
2023-08-04T09:03:53.680Z,17.10
2023-08-04T09:06:21.931Z,11.80
2023-08-04T09:08:50.223Z,16.00
2023-08-04T09:11:19.214Z,17.30
2023-08-04T09:13:47.975Z,13.50
2023-08-04T09:16:17.081Z,12.10
2023-08-04T09:19:33.612Z,16.60
2023-08-04T09:22:01.993Z,30.00
2023-08-04T09:25:08.901Z,13.90
2023-08-04T09:27:39.729Z,10.80
2023-08-04T09:30:12.484Z,13.60
2023-08-04T09:32:46.264Z,11.30
2023-08-04T09:35:15.895Z,10.40
2023-08-04T09:37:44.640Z,12.40
2023-08-04T09:40:36.454Z,17.90
2023-08-04T09:45:48.663Z,20.40
2023-08-04T09:48:41.854Z,10.50
2023-08-04T09:51:12.946Z,10.60
2023-08-04T09:53:53.577Z,11.00
2023-08-04T09:56:26.411Z,6.50
2023-08-04T09:58:55.199Z,16.90
2023-08-04T10:01:33.488Z,8.00
2023-08-04T10:04:03.399Z,15.30
2023-08-04T10:07:08.271Z,13.40
2023-08-04T10:26:25.774Z,10.00
2023-08-04T10:30:09.782Z,9.80
2023-08-04T10:33:13.250Z,12.40
2023-08-04T10:40:11.589Z,18.00
2023-08-04T10:43:06.670Z,20.10
2023-08-04T10:46:10.899Z,10.00
2023-08-04T10:52:41.917Z,11.00
2023-08-04T10:55:24.782Z,18.20
2023-08-04T10:58:07.551Z,13.90
2023-08-04T11:05:50.043Z,12.80
2023-08-04T11:08:22.946Z,10.10
2023-08-04T11:10:53.778Z,8.30
2023-08-04T11:13:41.261Z,16.50
2023-08-04T11:16:37.433Z,7.30
2023-08-04T11:19:19.009Z,7.90
2023-08-04T11:21:47.654Z,11.30
2023-08-04T11:27:33.554Z,10.30
2023-08-04T11:30:26.986Z,12.70
2023-08-04T11:33:44.741Z,18.70
2023-08-04T11:36:36.480Z,15.70
2023-08-04T11:39:08.745Z,32.20
2023-08-04T11:51:27.450Z,12.60
2023-08-04T11:55:22.988Z,9.10
2023-08-04T11:58:44.608Z,13.90
2023-08-04T12:02:06.753Z,12.60
2023-08-04T12:11:41.469Z,9.40
2023-08-04T12:20:12.982Z,10.00
2023-08-04T12:21:42.764Z,10.80
2023-08-04T12:27:57.436Z,8.90
2023-08-04T12:30:26.009Z,9.90
2023-08-04T12:36:15.285Z,9.40
2023-08-04T12:38:49.490Z,24.60
2023-08-04T12:41:20.681Z,11.00
2023-08-04T12:45:04.053Z,12.60
2023-08-04T12:48:33.376Z,10.40
2023-08-04T12:51:30.676Z,14.00
2023-08-04T12:54:02.760Z,17.70
2023-08-04T12:57:49.346Z,19.60
2023-08-04T13:00:46.555Z,10.80
2023-08-04T13:03:14.967Z,12.90
2023-08-04T13:07:25.096Z,11.00
2023-08-04T13:10:20.185Z,18.00
2023-08-04T13:12:48.502Z,9.30
2023-08-04T13:15:17.239Z,14.90
2023-08-04T13:18:31.072Z,11.40
2023-08-04T13:21:19.984Z,13.50
2023-08-04T13:23:48.781Z,19.30
2023-08-04T13:29:31.532Z,15.60
2023-08-04T13:31:59.898Z,12.40
2023-08-04T13:34:43.368Z,10.10
2023-08-04T13:37:11.983Z,8.00
2023-08-04T13:39:46.491Z,9.40
2023-08-04T13:42:54.047Z,11.90
2023-08-04T13:45:50.470Z,9.00
2023-08-04T13:49:09.018Z,7.90
2023-08-04T13:56:48.945Z,10.20
2023-08-04T14:03:38.835Z,12.80
2023-08-04T14:07:11.046Z,14.60
2023-08-04T14:09:41.959Z,13.90
2023-08-04T14:12:11.810Z,12.30
2023-08-04T14:14:46.230Z,14.50
2023-08-04T14:17:15.613Z,12.70
2023-08-04T14:31:31.098Z,14.30
2023-08-04T14:38:46.292Z,13.70
2023-08-04T14:42:19.386Z,9.20
2023-08-04T14:44:50.784Z,15.20
2023-08-04T14:47:25.498Z,10.70
2023-08-04T14:50:42.238Z,11.20
2023-08-04T14:53:37.965Z,14.00
2023-08-04T14:57:20.791Z,9.70
2023-08-04T15:08:15.640Z,15.00
2023-08-04T15:10:51.948Z,10.70
2023-08-04T15:17:21.878Z,10.80
2023-08-04T15:26:09.426Z,7.20
2023-08-04T15:28:51.569Z,11.80
2023-08-04T15:31:47.103Z,8.90
2023-08-04T15:35:30.653Z,9.40
2023-08-04T15:38:09.934Z,5.80
2023-08-04T15:41:28.789Z,8.70
2023-08-04T15:44:47.401Z,8.00
2023-08-04T15:47:17.713Z,11.70
2023-08-04T15:49:47.442Z,15.90
2023-08-04T15:54:14.588Z,17.10
2023-08-04T16:01:11.895Z,9.90
2023-08-04T16:04:12.456Z,8.70
2023-08-04T16:07:28.031Z,6.70
2023-08-04T16:17:38.608Z,10.40
2023-08-04T16:21:24.820Z,8.80
2023-08-04T16:24:20.080Z,13.40
2023-08-04T16:26:48.923Z,6.50
2023-08-04T16:29:21.217Z,12.80
2023-08-04T16:35:59.762Z,10.90
2023-08-04T16:38:28.362Z,10.90
2023-08-04T16:41:07.412Z,9.30
2023-08-04T16:43:46.070Z,10.20
2023-08-04T16:46:16.267Z,12.70
2023-08-04T16:51:52.187Z,13.00
2023-08-04T16:54:29.342Z,10.60
2023-08-04T16:56:57.613Z,13.10
2023-08-04T16:59:29.064Z,12.10
2023-08-04T17:01:57.351Z,8.80
2023-08-04T17:45:03.569Z,11.10
2023-08-04T17:55:10.316Z,11.00
2023-08-04T17:58:05.335Z,9.40
2023-08-04T18:00:36.402Z,17.30
2023-08-04T18:03:05.015Z,9.40
2023-08-04T18:16:05.153Z,14.00
2023-08-04T18:18:33.820Z,10.50
2023-08-04T18:26:12.717Z,11.60
2023-08-04T18:28:41.116Z,10.40
2023-08-04T18:34:04.191Z,15.30
2023-08-04T18:43:19.474Z,14.30
2023-08-04T18:46:32.940Z,13.50
2023-08-04T18:49:15.066Z,14.20
2023-08-04T18:56:02.290Z,19.30
2023-08-04T18:58:55.486Z,14.70
2023-08-04T19:08:14.607Z,13.60
2023-08-04T19:10:52.315Z,20.50
2023-08-04T19:17:07.418Z,18.40
2023-08-04T19:19:35.821Z,14.30
2023-08-04T19:22:29.170Z,16.10
2023-08-04T19:25:16.117Z,17.70
2023-08-04T19:27:44.424Z,14.70
2023-08-04T19:30:15.487Z,18.50
2023-08-04T19:32:45.577Z,16.60
2023-08-04T19:35:14.181Z,14.80
2023-08-04T19:37:44.976Z,16.20
2023-08-04T19:40:27.368Z,14.70
2023-08-04T19:42:55.796Z,13.80
2023-08-04T19:45:25.868Z,16.20
2023-08-04T19:47:59.777Z,15.90
2023-08-04T19:50:45.154Z,20.50
2023-08-04T19:54:03.371Z,15.80
2023-08-04T20:00:19.291Z,16.40
2023-08-04T20:02:49.167Z,13.60
2023-08-04T20:06:08.687Z,15.40
2023-08-04T20:08:37.184Z,13.80
2023-08-04T20:11:07.796Z,12.20
2023-08-04T20:13:37.249Z,14.00
2023-08-04T20:16:31.597Z,13.70
2023-08-04T20:19:00.305Z,11.90
2023-08-04T20:28:21.316Z,12.30
2023-08-04T20:31:08.076Z,12.90
2023-08-04T20:33:36.588Z,14.90
2023-08-04T20:36:06.414Z,12.40
2023-08-04T20:38:36.842Z,17.20
2023-08-04T20:41:12.923Z,14.80
2023-08-04T20:43:42.991Z,13.60
2023-08-04T20:46:14.146Z,10.60
2023-08-04T20:48:43.393Z,12.80
2023-08-04T20:51:11.738Z,13.60
2023-08-04T20:53:43.204Z,10.30
2023-08-04T20:56:13.604Z,11.00
2023-08-04T20:58:41.903Z,11.80
2023-08-04T21:01:11.053Z,10.70
2023-08-04T21:03:42.448Z,12.90
2023-08-04T21:06:11.251Z,12.20
2023-08-04T21:08:39.517Z,11.00
2023-08-04T21:11:08.654Z,12.30
2023-08-04T21:13:37.173Z,11.10
2023-08-04T21:26:08.363Z,12.40
2023-08-04T21:28:36.688Z,14.20
2023-08-04T21:31:05.123Z,11.80
2023-08-04T21:33:33.448Z,9.00
2023-08-04T21:36:03.139Z,12.90
2023-08-04T21:38:34.573Z,11.60
2023-08-04T21:41:07.732Z,11.50
2023-08-04T21:43:36.557Z,9.60
2023-08-04T21:46:11.172Z,9.90
2023-08-04T21:48:42.758Z,9.20
2023-08-04T21:51:15.953Z,8.70
2023-08-04T21:53:45.676Z,10.00
2023-08-04T21:56:14.295Z,7.60
2023-08-04T21:59:07.952Z,8.20
2023-08-04T22:01:36.165Z,11.00
2023-08-04T22:04:05.340Z,9.90
2023-08-04T22:06:33.758Z,10.30
2023-08-04T22:09:03.037Z,7.90
2023-08-04T22:14:35.663Z,12.10
2023-08-04T22:17:04.324Z,10.10
2023-08-04T22:22:17.535Z,9.40
2023-08-04T22:24:45.880Z,8.70
2023-08-04T22:27:16.362Z,7.70
2023-08-04T22:29:44.855Z,10.00
2023-08-04T22:32:13.484Z,8.20
2023-08-04T22:34:41.912Z,10.10
2023-08-04T22:37:10.252Z,9.10
2023-08-04T22:39:38.515Z,8.40
2023-08-04T22:42:06.777Z,10.30
2023-08-04T22:44:34.971Z,11.10
2023-08-04T22:47:05.002Z,8.80
2023-08-04T22:49:33.377Z,7.10
2023-08-04T22:52:01.756Z,12.20
2023-08-04T22:54:33.337Z,8.30
2023-08-04T22:57:05.163Z,7.40
2023-08-04T22:59:34.172Z,9.90
2023-08-04T23:02:02.490Z,10.10
2023-08-04T23:04:30.838Z,9.10
2023-08-04T23:06:59.752Z,8.70
2023-08-04T23:09:28.620Z,12.70
2023-08-04T23:11:58.409Z,7.50
2023-08-04T23:14:26.752Z,8.30
2023-08-04T23:16:55.292Z,8.90
2023-08-04T23:19:24.903Z,9.80
2023-08-04T23:21:53.214Z,10.80
2023-08-04T23:24:21.593Z,7.30
2023-08-04T23:26:50.833Z,9.90
2023-08-04T23:29:21.176Z,11.20
2023-08-04T23:31:49.687Z,8.50
2023-08-04T23:34:17.951Z,9.40
2023-08-04T23:36:49.049Z,7.80
2023-08-04T23:39:17.732Z,9.20
2023-08-04T23:41:46.216Z,9.00
2023-08-04T23:44:14.474Z,7.60
2023-08-04T23:46:43.646Z,9.50
2023-08-04T23:49:16.898Z,9.40
2023-08-04T23:51:49.195Z,9.20
2023-08-04T23:54:17.341Z,8.20
2023-08-04T23:56:46.689Z,11.10
2023-08-04T23:59:15.171Z,7.10
